Time;durP1;ratioP1;P1;durP2;ratioP2;P2;SDS_P1;SDS_P2;PMS_P1;PMS_P2;Temp;Humidity;BMP_temperature;BMP_pressure;BME280_temperature;BME280_humidity;BME280_pressure;Samples;Min_cycle;Max_cycle;Signal;HPM_P1;HPM_P2
2022/11/14 00:00:00;;;;;;;37.58;26.08;;;7.20;99.90;;;;;;5036033;28;20490;-65
2022/11/14 00:02:26;;;;;;;42.25;28.52;;;8.20;99.90;;;;;;5021438;28;20044;-65
2022/11/14 00:04:52;;;;;;;47.50;33.05;;;7.40;99.90;;;;;;5022099;28;20565;-63
2022/11/14 00:07:17;;;;;;;39.78;28.67;;;7.80;99.90;;;;;;5040483;28;20051;-65
2022/11/14 00:09:43;;;;;;;42.17;30.00;;;8.10;99.90;;;;;;5042075;28;20143;-64
2022/11/14 00:12:09;;;;;;;32.78;22.20;;;8.00;99.90;;;;;;5040122;28;20487;-64
2022/11/14 00:14:35;;;;;;;33.38;24.40;;;7.50;99.90;;;;;;5037461;28;20044;-64
2022/11/14 00:17:01;;;;;;;46.67;35.13;;;7.90;99.90;;;;;;5037460;28;20063;-64
2022/11/14 00:19:27;;;;;;;46.80;36.42;;;8.00;99.90;;;;;;5037266;28;20340;-64
2022/11/14 00:21:53;;;;;;;35.50;24.88;;;7.30;99.90;;;;;;5034383;28;20371;-64
2022/11/14 00:24:19;;;;;;;42.85;32.97;;;7.60;99.90;;;;;;5024048;28;20663;-63
2022/11/14 00:26:45;;;;;;;45.15;31.52;;;8.10;99.90;;;;;;5040477;28;20577;-63
2022/11/14 00:29:12;;;;;;;42.83;32.33;;;8.20;99.90;;;;;;5006307;28;20036;-64
2022/11/14 00:31:38;;;;;;;32.92;22.10;;;7.80;99.90;;;;;;5023878;28;20045;-64
2022/11/14 00:34:04;;;;;;;50.85;36.30;;;8.10;99.90;;;;;;5040362;28;20052;-64
2022/11/14 00:36:29;;;;;;;51.22;38.30;;;8.20;99.90;;;;;;5055711;28;20629;-64
2022/11/14 00:38:55;;;;;;;41.55;29.75;;;7.70;99.90;;;;;;5007089;28;20223;-64
2022/11/14 00:41:21;;;;;;;48.47;38.53;;;7.60;99.90;;;;;;5039965;28;20064;-64
2022/11/14 00:43:47;;;;;;;56.40;43.17;;;8.10;99.90;;;;;;5024551;28;20172;-64
2022/11/14 00:46:12;;;;;;;51.28;38.55;;;7.40;99.90;;;;;;5039251;28;20036;-64
2022/11/14 00:48:38;;;;;;;50.58;37.88;;;8.20;99.90;;;;;;5040592;28;20785;-64
2022/11/14 00:51:04;;;;;;;48.13;37.42;;;8.10;99.90;;;;;;5020734;28;20513;-64
2022/11/14 00:53:30;;;;;;;53.67;41.42;;;7.30;99.90;;;;;;5032623;28;20056;-64
2022/11/14 00:55:55;;;;;;;41.35;31.23;;;7.30;99.90;;;;;;5020453;28;20055;-63
2022/11/14 00:58:21;;;;;;;51.78;41.05;;;8.10;99.90;;;;;;5019690;28;20068;-64
2022/11/14 01:00:47;;;;;;;55.97;40.72;;;8.00;99.90;;;;;;5035175;28;20032;-63
2022/11/14 01:03:13;;;;;;;52.47;38.33;;;7.30;99.90;;;;;;5054073;28;20106;-64
2022/11/14 01:05:43;;;;;;;47.40;33.97;;;8.00;99.90;;;;;;5020631;28;20520;-65
2022/11/14 01:08:10;;;;;;;44.35;31.25;;;7.90;99.90;;;;;;5013798;28;20413;-66
2022/11/14 01:10:45;;;;;;;54.70;40.60;;;8.10;99.90;;;;;;5036891;28;20048;-64
2022/11/14 01:13:11;;;;;;;43.33;32.70;;;7.90;99.90;;;;;;5036457;28;20044;-63
2022/11/14 01:15:45;;;;;;;50.85;39.03;;;7.50;99.90;;;;;;5035374;28;20555;-64
2022/11/14 01:18:13;;;;;;;40.67;28.90;;;8.10;99.90;;;;;;5035324;28;20097;-65
2022/11/14 01:20:41;;;;;;;49.38;37.13;;;7.50;99.90;;;;;;5037038;28;20036;-65
2022/11/14 01:23:08;;;;;;;56.45;40.33;;;7.60;99.90;;;;;;5033160;28;20510;-64
2022/11/14 01:25:34;;;;;;;53.70;39.67;;;8.10;99.90;;;;;;5033700;28;20673;-64
2022/11/14 01:28:00;;;;;;;52.13;38.50;;;7.80;99.90;;;;;;5053873;28;20048;-64
2022/11/14 01:30:26;;;;;;;52.55;37.10;;;7.70;99.90;;;;;;5053424;28;20078;-63
2022/11/14 01:32:52;;;;;;;52.03;37.85;;;8.20;99.90;;;;;;5035086;28;20357;-63
2022/11/14 01:35:17;;;;;;;46.85;32.92;;;7.60;99.90;;;;;;5037166;28;20462;-66
2022/11/14 01:37:43;;;;;;;42.22;27.65;;;8.10;99.90;;;;;;5035397;28;20081;-65
2022/11/14 01:40:09;;;;;;;41.50;27.98;;;7.60;99.90;;;;;;4999454;28;20094;-66
2022/11/14 01:42:35;;;;;;;48.20;32.70;;;8.20;99.90;;;;;;5054436;28;20076;-65
2022/11/14 01:45:21;;;;;;;36.17;25.52;;;7.70;99.90;;;;;;5002561;28;20044;-65
2022/11/14 01:47:46;;;;;;;51.28;36.38;;;8.10;99.90;;;;;;5051975;28;20067;-65
2022/11/14 01:50:12;;;;;;;47.40;34.65;;;7.60;99.90;;;;;;5035429;28;20044;-66
2022/11/14 01:52:39;;;;;;;54.50;38.75;;;8.10;99.90;;;;;;5035568;28;20037;-64
2022/11/14 01:55:08;;;;;;;41.70;30.27;;;7.50;99.90;;;;;;5033087;28;20052;-64
2022/11/14 01:57:46;;;;;;;48.83;34.05;;;8.00;99.90;;;;;;5036609;28;20622;-64
2022/11/14 02:00:13;;;;;;;40.15;26.27;;;8.30;99.90;;;;;;5036029;28;20032;-65
2022/11/14 02:02:38;;;;;;;56.42;41.95;;;8.30;99.90;;;;;;5017589;28;20427;-64
2022/11/14 02:05:11;;;;;;;51.53;34.78;;;7.60;99.90;;;;;;5053025;28;20070;-64
2022/11/14 02:07:39;;;;;;;49.67;35.42;;;8.10;99.90;;;;;;5038546;28;20120;-64
2022/11/14 02:10:20;;;;;;;43.60;32.03;;;7.40;99.90;;;;;;5033730;28;20041;-64
2022/11/14 02:12:47;;;;;;;49.75;32.67;;;7.80;99.90;;;;;;5050422;28;20277;-65
2022/11/14 02:15:14;;;;;;;43.42;28.92;;;7.50;99.90;;;;;;5018757;28;20051;-65
2022/11/14 02:17:41;;;;;;;42.47;28.92;;;7.80;99.90;;;;;;5017723;28;20519;-65
2022/11/14 02:20:10;;;;;;;50.40;35.58;;;7.70;99.90;;;;;;5035512;28;20513;-65
2022/11/14 02:22:40;;;;;;;51.80;37.33;;;8.00;99.90;;;;;;5058185;28;20090;-66
2022/11/14 02:25:07;;;;;;;37.38;25.10;;;7.90;99.90;;;;;;5035795;28;20076;-64
2022/11/14 02:27:33;;;;;;;53.20;37.00;;;7.70;99.90;;;;;;5055163;28;20467;-65
2022/11/14 02:30:26;;;;;;;46.42;30.98;;;7.50;99.90;;;;;;5022991;28;20046;-66
2022/11/14 02:32:51;;;;;;;36.47;23.13;;;7.70;99.90;;;;;;5006692;28;20064;-65
2022/11/14 02:35:17;;;;;;;50.58;37.13;;;8.10;99.90;;;;;;5039987;28;20041;-64
2022/11/14 02:37:43;;;;;;;53.30;37.72;;;8.00;99.90;;;;;;5041980;28;20075;-65
2022/11/14 02:40:09;;;;;;;43.33;31.35;;;7.80;99.90;;;;;;5026517;28;20063;-63
2022/11/14 02:42:35;;;;;;;39.75;25.52;;;7.80;99.90;;;;;;5041343;28;20254;-63
2022/11/14 02:45:00;;;;;;;30.48;20.08;;;8.10;99.90;;;;;;5059594;28;20452;-64
2022/11/14 02:47:26;;;;;;;59.47;42.80;;;8.00;99.90;;;;;;5061213;28;20048;-63
2022/11/14 02:49:52;;;;;;;43.55;26.40;;;7.90;99.90;;;;;;5040780;28;20091;-65
2022/11/14 02:52:18;;;;;;;41.03;28.48;;;7.70;99.90;;;;;;5041558;28;20578;-63
2022/11/14 02:54:43;;;;;;;53.45;37.72;;;8.30;99.90;;;;;;5042836;28;20032;-63
2022/11/14 02:57:09;;;;;;;63.15;45.58;;;7.50;99.90;;;;;;5058073;28;20601;-65
2022/11/14 02:59:35;;;;;;;64.18;46.58;;;7.60;99.90;;;;;;5018145;28;20627;-65
2022/11/14 03:02:00;;;;;;;46.67;30.92;;;7.50;99.90;;;;;;5022149;28;20489;-64
2022/11/14 03:04:26;;;;;;;51.97;36.35;;;7.40;99.90;;;;;;5037648;28;20032;-65
2022/11/14 03:06:52;;;;;;;34.60;22.08;;;8.20;99.90;;;;;;5039579;28;20090;-66
2022/11/14 03:09:18;;;;;;;36.97;24.95;;;8.20;99.90;;;;;;5038354;28;20063;-65
2022/11/14 03:11:43;;;;;;;59.20;43.45;;;7.30;99.90;;;;;;5037244;28;20606;-66
2022/11/14 03:14:09;;;;;;;56.25;41.42;;;8.10;99.90;;;;;;5058302;28;20328;-64
2022/11/14 03:16:35;;;;;;;50.97;34.75;;;7.80;99.90;;;;;;5024038;28;20105;-64
2022/11/14 03:19:01;;;;;;;57.03;42.92;;;8.00;99.90;;;;;;5058284;28;20423;-67
2022/11/14 03:21:27;;;;;;;42.40;28.98;;;7.50;99.90;;;;;;5020522;28;20490;-66
2022/11/14 03:23:52;;;;;;;46.13;32.70;;;7.60;99.90;;;;;;5021914;28;20052;-66
2022/11/14 03:26:18;;;;;;;52.88;38.55;;;8.00;99.90;;;;;;5036981;28;20040;-65
2022/11/14 03:28:44;;;;;;;51.78;37.15;;;8.20;99.90;;;;;;5055299;28;20430;-65
2022/11/14 03:31:11;;;;;;;44.85;33.80;;;7.40;99.90;;;;;;5035856;28;20109;-64
2022/11/14 03:33:37;;;;;;;51.92;36.72;;;8.00;99.90;;;;;;5005212;28;20048;-66
2022/11/14 03:36:04;;;;;;;51.55;38.55;;;8.10;99.90;;;;;;5035597;28;20037;-64
2022/11/14 03:38:30;;;;;;;65.65;48.33;;;7.30;99.90;;;;;;5038476;28;20049;-65
2022/11/14 03:41:00;;;;;;;52.00;37.10;;;8.10;99.90;;;;;;5038145;28;20127;-65
2022/11/14 03:43:30;;;;;;;47.97;33.80;;;8.10;99.90;;;;;;5036891;28;20171;-65
2022/11/14 03:45:58;;;;;;;53.30;38.58;;;7.40;99.90;;;;;;5019975;28;20045;-65
2022/11/14 03:48:23;;;;;;;37.25;26.55;;;7.90;99.90;;;;;;5037483;28;20083;-65
2022/11/14 03:50:49;;;;;;;54.50;40.55;;;7.40;99.90;;;;;;5019592;28;20115;-65
2022/11/14 03:53:15;;;;;;;45.88;32.50;;;7.90;99.90;;;;;;5055993;28;20098;-65
2022/11/14 03:55:42;;;;;;;49.15;34.97;;;8.10;99.90;;;;;;5037615;28;21441;-64
2022/11/14 03:58:08;;;;;;;35.25;24.70;;;7.70;99.90;;;;;;5053620;28;20445;-64
2022/11/14 04:00:34;;;;;;;36.83;24.52;;;7.50;99.90;;;;;;5021100;28;20036;-64
2022/11/14 04:03:00;;;;;;;39.50;27.17;;;7.70;99.90;;;;;;5018031;28;20521;-65
2022/11/14 04:05:25;;;;;;;46.55;29.98;;;7.20;99.90;;;;;;5003538;28;20052;-64
2022/11/14 04:07:51;;;;;;;39.72;28.48;;;7.60;99.90;;;;;;5036665;28;20589;-66
2022/11/14 04:10:17;;;;;;;37.88;27.17;;;7.30;99.90;;;;;;5020985;28;20056;-65
2022/11/14 04:12:48;;;;;;;30.75;21.75;;;7.50;99.90;;;;;;5036733;28;20494;-65
2022/11/14 04:15:14;;;;;;;52.70;39.38;;;7.60;99.90;;;;;;5036783;28;20157;-65
2022/11/14 04:17:40;;;;;;;57.20;44.70;;;7.10;99.90;;;;;;5053479;28;20135;-64
2022/11/14 04:20:06;;;;;;;52.25;41.17;;;7.70;99.90;;;;;;5036915;28;20028;-63
2022/11/14 04:22:32;;;;;;;32.65;21.85;;;7.10;99.90;;;;;;5023645;28;20113;-63
2022/11/14 04:24:57;;;;;;;56.65;41.97;;;7.60;99.90;;;;;;5023635;28;20044;-64
2022/11/14 04:27:23;;;;;;;43.60;29.75;;;7.60;99.90;;;;;;5040374;28;20433;-63
2022/11/14 04:29:48;;;;;;;52.22;37.22;;;7.40;99.90;;;;;;5036234;28;20135;-65
2022/11/14 04:32:14;;;;;;;38.80;27.88;;;6.90;99.90;;;;;;5004613;28;20036;-65
2022/11/14 04:34:40;;;;;;;53.08;40.47;;;7.60;99.90;;;;;;5034581;28;20210;-65
2022/11/14 04:37:06;;;;;;;55.78;43.05;;;6.90;99.90;;;;;;5035268;28;20432;-64
2022/11/14 04:39:32;;;;;;;52.88;38.55;;;7.60;99.90;;;;;;5037070;28;20066;-65
2022/11/14 04:41:57;;;;;;;53.65;39.53;;;6.80;99.90;;;;;;5055075;28;20044;-66
2022/11/14 04:44:23;;;;;;;49.35;31.15;;;6.80;99.90;;;;;;5052550;28;20040;-65
2022/11/14 04:46:49;;;;;;;56.08;40.08;;;6.70;99.90;;;;;;5019702;28;20036;-65
2022/11/14 04:49:14;;;;;;;56.90;42.20;;;6.60;99.90;;;;;;5017156;28;20149;-66
2022/11/14 04:51:40;;;;;;;64.50;48.40;;;6.50;99.90;;;;;;5016972;28;20845;-64
2022/11/14 04:54:06;;;;;;;58.72;40.97;;;7.50;99.90;;;;;;5019964;28;20406;-64
2022/11/14 04:56:31;;;;;;;66.18;50.20;;;7.50;99.90;;;;;;5039718;28;20040;-64
2022/11/14 04:58:57;;;;;;;61.42;43.78;;;7.20;99.90;;;;;;5023018;28;20045;-65
2022/11/14 05:01:23;;;;;;;65.65;48.47;;;7.10;99.90;;;;;;5058218;28;20492;-62
2022/11/14 05:03:48;;;;;;;65.93;47.85;;;7.50;99.90;;;;;;5040535;28;20069;-64
2022/11/14 05:06:14;;;;;;;65.18;49.53;;;7.30;99.90;;;;;;5056981;28;20036;-64
2022/11/14 05:08:40;;;;;;;69.00;49.38;;;6.50;99.90;;;;;;5039995;28;20056;-63
2022/11/14 05:11:05;;;;;;;66.32;47.03;;;7.00;99.90;;;;;;5040144;28;20498;-64
2022/11/14 05:13:31;;;;;;;71.15;51.30;;;7.20;99.90;;;;;;5023390;28;20191;-64
2022/11/14 05:16:00;;;;;;;67.88;49.45;;;6.80;99.90;;;;;;5039524;28;20036;-63
2022/11/14 05:18:26;;;;;;;61.10;41.75;;;6.30;99.90;;;;;;5037712;28;20052;-64
2022/11/14 05:20:52;;;;;;;50.42;35.75;;;6.60;99.90;;;;;;5018113;28;20049;-65
2022/11/14 05:23:20;;;;;;;47.08;34.83;;;6.60;99.90;;;;;;5050917;28;20059;-65
2022/11/14 05:25:46;;;;;;;60.40;42.97;;;6.30;99.90;;;;;;5019113;28;20501;-64
2022/11/14 05:28:12;;;;;;;51.20;35.85;;;6.40;99.90;;;;;;5019494;28;20094;-65
2022/11/14 05:30:37;;;;;;;56.20;41.05;;;6.60;99.90;;;;;;5035163;28;20058;-64
2022/11/14 05:33:03;;;;;;;55.17;35.50;;;6.60;99.90;;;;;;5035902;28;20059;-63
2022/11/14 05:35:29;;;;;;;57.45;41.03;;;6.30;99.90;;;;;;5020157;28;20074;-66
2022/11/14 05:37:54;;;;;;;49.15;34.58;;;7.10;99.90;;;;;;5016878;28;20242;-65
2022/11/14 05:40:20;;;;;;;61.65;45.33;;;7.00;99.90;;;;;;5035205;28;20409;-65
2022/11/14 05:42:46;;;;;;;67.10;47.47;;;6.40;99.90;;;;;;5036221;28;20052;-65
2022/11/14 05:45:11;;;;;;;71.43;49.38;;;6.40;99.90;;;;;;5017615;28;20349;-65
2022/11/14 05:47:37;;;;;;;72.45;50.83;;;6.60;99.90;;;;;;5034890;28;20133;-66
2022/11/14 05:50:03;;;;;;;65.00;45.03;;;6.20;99.90;;;;;;5054297;28;20040;-66
2022/11/14 05:52:30;;;;;;;48.17;33.90;;;6.10;99.90;;;;;;5034626;28;20284;-66
2022/11/14 05:54:55;;;;;;;48.25;32.13;;;6.70;99.90;;;;;;5033551;28;20032;-65
2022/11/14 05:57:21;;;;;;;73.78;51.03;;;6.90;99.90;;;;;;5022932;28;20508;-66
2022/11/14 05:59:47;;;;;;;74.00;52.22;;;6.60;99.90;;;;;;5058097;28;20044;-66
2022/11/14 06:02:13;;;;;;;76.15;51.83;;;6.00;99.90;;;;;;5038782;28;20086;-66
2022/11/14 06:04:38;;;;;;;79.93;54.00;;;7.10;99.90;;;;;;5040543;28;20112;-65
2022/11/14 06:07:04;;;;;;;80.03;54.22;;;6.70;99.90;;;;;;5022428;28;20105;-64
2022/11/14 06:09:30;;;;;;;79.35;55.58;;;6.40;99.90;;;;;;5054036;28;20037;-65
2022/11/14 06:11:55;;;;;;;71.97;50.20;;;6.40;99.90;;;;;;5024278;28;20522;-65
2022/11/14 06:14:21;;;;;;;80.00;54.60;;;5.90;99.90;;;;;;5023121;28;20499;-66
2022/11/14 06:16:46;;;;;;;75.72;52.67;;;6.30;99.90;;;;;;5037921;28;20047;-65
2022/11/14 06:19:12;;;;;;;80.93;55.38;;;6.20;99.90;;;;;;5021981;28;20041;-65
2022/11/14 06:21:38;;;;;;;55.53;36.50;;;6.00;99.90;;;;;;5038828;28;20045;-66
2022/11/14 06:24:04;;;;;;;67.53;46.70;;;6.00;99.90;;;;;;5056441;28;20051;-66
2022/11/14 06:26:30;;;;;;;71.55;51.30;;;7.00;99.90;;;;;;4992685;28;20064;-66
2022/11/14 06:28:57;;;;;;;71.93;52.80;;;6.40;99.90;;;;;;5039711;28;20386;-65
2022/11/14 06:31:24;;;;;;;77.80;53.97;;;6.80;99.90;;;;;;5038545;28;20058;-66
2022/11/14 06:33:49;;;;;;;59.45;40.08;;;6.90;99.90;;;;;;5037776;28;20044;-65
2022/11/14 06:36:16;;;;;;;65.30;45.08;;;6.00;99.90;;;;;;5021984;28;20153;-66
2022/11/14 06:38:42;;;;;;;55.60;36.78;;;5.90;99.90;;;;;;5039303;28;20041;-65
2022/11/14 06:41:16;;;;;;;69.90;48.85;;;7.00;99.90;;;;;;5034019;28;20032;-64
2022/11/14 06:43:44;;;;;;;41.55;24.70;;;6.20;99.90;;;;;;5038997;28;20052;-63
2022/11/14 06:46:12;;;;;;;70.07;47.67;;;6.60;99.90;;;;;;5056409;28;20845;-64
2022/11/14 06:48:38;;;;;;;50.63;31.48;;;6.40;99.90;;;;;;5054987;28;20040;-64
2022/11/14 06:51:05;;;;;;;55.45;34.13;;;6.30;99.90;;;;;;5036138;28;20079;-64
2022/11/14 06:53:33;;;;;;;66.25;39.22;;;6.80;99.90;;;;;;5038463;28;20052;-65
2022/11/14 06:56:14;;;;;;;70.13;45.92;;;6.70;99.90;;;;;;5034567;28;20051;-64
2022/11/14 06:58:42;;;;;;;65.07;40.97;;;6.10;99.90;;;;;;5055589;28;20039;-64
2022/11/14 07:01:20;;;;;;;63.60;40.58;;;5.70;99.90;;;;;;5055571;28;20521;-64
2022/11/14 07:03:46;;;;;;;69.38;46.05;;;6.80;99.90;;;;;;5054573;28;20164;-65
2022/11/14 07:06:15;;;;;;;67.07;42.47;;;6.70;99.90;;;;;;5056504;28;20776;-64
2022/11/14 07:08:41;;;;;;;66.25;43.65;;;6.10;99.90;;;;;;5055576;28;20036;-64
2022/11/14 07:11:09;;;;;;;62.60;39.75;;;6.40;99.90;;;;;;5055396;28;20596;-64
2022/11/14 07:13:36;;;;;;;64.35;41.40;;;6.20;99.90;;;;;;5054112;28;20055;-64
2022/11/14 07:16:02;;;;;;;62.08;39.45;;;6.30;99.90;;;;;;5038748;28;20044;-64
2022/11/14 07:18:30;;;;;;;70.00;45.08;;;6.30;99.90;;;;;;5055861;28;20316;-64
2022/11/14 07:21:04;;;;;;;73.55;48.35;;;6.50;99.90;;;;;;5037255;28;20601;-63
2022/11/14 07:23:32;;;;;;;62.03;35.88;;;6.50;99.90;;;;;;5037305;28;20557;-65
2022/11/14 07:26:03;;;;;;;74.75;48.38;;;5.90;99.90;;;;;;5055040;28;20196;-64
2022/11/14 07:28:30;;;;;;;53.90;34.80;;;6.60;99.90;;;;;;5033865;28;20127;-66
2022/11/14 07:30:56;;;;;;;70.45;44.97;;;6.80;99.90;;;;;;5021652;28;20241;-63
2022/11/14 07:33:21;;;;;;;65.18;43.50;;;5.70;99.90;;;;;;5038036;28;20041;-64
2022/11/14 07:35:48;;;;;;;70.43;45.50;;;5.80;99.90;;;;;;5036691;28;20477;-64
2022/11/14 07:38:14;;;;;;;66.75;41.47;;;6.50;99.90;;;;;;5020731;28;20041;-65
2022/11/14 07:40:40;;;;;;;70.95;43.95;;;5.80;99.90;;;;;;5004521;28;20094;-64
2022/11/14 07:43:05;;;;;;;74.72;48.45;;;6.50;99.90;;;;;;5019623;28;20053;-64
2022/11/14 07:45:31;;;;;;;70.65;47.05;;;5.70;99.90;;;;;;5018668;28;20465;-64
2022/11/14 07:47:59;;;;;;;74.03;45.63;;;6.80;99.90;;;;;;5056690;28;20043;-63
2022/11/14 07:50:26;;;;;;;75.72;47.28;;;6.50;99.90;;;;;;5037385;28;20041;-64
2022/11/14 07:52:53;;;;;;;73.43;47.17;;;6.30;99.90;;;;;;5038506;28;20496;-65
2022/11/14 07:55:19;;;;;;;71.25;47.58;;;5.90;99.90;;;;;;5054783;28;20044;-65
2022/11/14 07:57:46;;;;;;;72.20;47.35;;;6.80;99.90;;;;;;5035286;28;20809;-65
2022/11/14 08:00:13;;;;;;;72.38;46.80;;;6.80;99.90;;;;;;5033208;28;20032;-65
2022/11/14 08:02:39;;;;;;;64.68;41.47;;;5.80;99.90;;;;;;5036725;28;20123;-65
2022/11/14 08:05:05;;;;;;;51.08;34.00;;;6.00;99.90;;;;;;5036106;28;20445;-65
2022/11/14 08:07:31;;;;;;;73.35;47.83;;;6.10;99.90;;;;;;5001343;28;20662;-64
2022/11/14 08:09:56;;;;;;;70.85;47.28;;;5.90;99.90;;;;;;5037068;28;20562;-66
2022/11/14 08:12:22;;;;;;;69.85;46.03;;;6.70;99.90;;;;;;5019811;28;20535;-65
2022/11/14 08:14:48;;;;;;;53.70;35.05;;;6.90;99.90;;;;;;5037032;28;20357;-66
2022/11/14 08:17:13;;;;;;;62.60;44.75;;;6.30;99.90;;;;;;5034709;28;20135;-64
2022/11/14 08:19:40;;;;;;;58.65;37.75;;;6.70;99.90;;;;;;5020543;28;20044;-65
2022/11/14 08:22:06;;;;;;;64.93;44.22;;;6.80;99.90;;;;;;5035132;28;20082;-67
2022/11/14 08:24:32;;;;;;;61.20;42.78;;;6.60;99.90;;;;;;5037909;28;20040;-65
2022/11/14 08:26:58;;;;;;;63.13;41.20;;;6.60;99.90;;;;;;5055460;28;20516;-66
2022/11/14 08:29:24;;;;;;;51.65;34.08;;;5.90;99.90;;;;;;5054365;28;20482;-65
2022/11/14 08:31:50;;;;;;;56.88;37.05;;;7.00;99.90;;;;;;5034675;28;20063;-65
2022/11/14 08:34:16;;;;;;;60.03;42.00;;;6.40;99.90;;;;;;5056333;28;20041;-66
2022/11/14 08:36:41;;;;;;;57.95;40.00;;;6.90;99.90;;;;;;5034246;28;20052;-66
2022/11/14 08:39:07;;;;;;;46.28;30.45;;;6.00;99.90;;;;;;5020642;28;20051;-64
2022/11/14 08:41:33;;;;;;;54.42;35.25;;;6.00;99.90;;;;;;5036141;28;20037;-65
2022/11/14 08:43:58;;;;;;;52.38;34.03;;;6.50;99.90;;;;;;5053999;28;20056;-64
2022/11/14 08:46:24;;;;;;;60.78;41.33;;;6.90;99.90;;;;;;5005162;28;20052;-64
2022/11/14 08:48:49;;;;;;;50.95;32.35;;;6.90;99.90;;;;;;5034011;28;20200;-66
2022/11/14 08:51:15;;;;;;;60.03;39.83;;;6.60;99.90;;;;;;5036853;28;20079;-65
2022/11/14 08:53:41;;;;;;;44.00;28.77;;;6.00;99.90;;;;;;5017767;28;20468;-67
2022/11/14 08:56:09;;;;;;;68.28;47.63;;;6.90;99.90;;;;;;5016889;28;20044;-65
2022/11/14 08:58:34;;;;;;;69.65;49.47;;;6.70;99.90;;;;;;5054546;28;20993;-65
2022/11/14 09:01:05;;;;;;;57.15;37.83;;;6.70;99.90;;;;;;5037651;28;20055;-64
2022/11/14 09:03:32;;;;;;;66.50;48.28;;;7.10;99.90;;;;;;5016311;28;20041;-64
2022/11/14 09:05:57;;;;;;;57.60;40.40;;;6.80;99.90;;;;;;5033263;28;20045;-65
2022/11/14 09:08:24;;;;;;;53.55;34.88;;;7.00;99.90;;;;;;5054713;28;20043;-63
2022/11/14 09:10:50;;;;;;;57.78;39.50;;;6.60;99.90;;;;;;5057638;28;20054;-63
2022/11/14 09:13:16;;;;;;;53.58;37.20;;;6.40;99.90;;;;;;5040785;28;20682;-63
2022/11/14 09:15:42;;;;;;;61.40;43.00;;;6.60;99.90;;;;;;5057459;28;20064;-64
2022/11/14 09:18:09;;;;;;;66.13;45.08;;;6.50;99.90;;;;;;5056280;28;20044;-63
2022/11/14 09:20:34;;;;;;;65.25;46.78;;;6.50;99.90;;;;;;5038217;28;20122;-64
2022/11/14 09:23:01;;;;;;;53.50;36.00;;;6.80;99.90;;;;;;5039418;28;20493;-63
2022/11/14 09:25:28;;;;;;;60.45;39.45;;;7.00;99.90;;;;;;5039126;28;20061;-66
2022/11/14 09:27:54;;;;;;;70.45;51.63;;;7.00;99.90;;;;;;5020903;28;20048;-65
2022/11/14 09:30:21;;;;;;;70.05;48.33;;;6.70;99.90;;;;;;5036305;28;20720;-65
2022/11/14 09:32:47;;;;;;;74.60;52.47;;;7.00;99.90;;;;;;5056183;28;20224;-65
2022/11/14 09:35:13;;;;;;;50.40;30.95;;;6.40;99.90;;;;;;5055188;28;20041;-64
2022/11/14 09:37:39;;;;;;;66.05;48.13;;;7.00;99.90;;;;;;5057363;28;20123;-64
2022/11/14 09:40:05;;;;;;;66.47;48.72;;;7.30;99.90;;;;;;5036985;28;20093;-64
2022/11/14 09:43:09;;;;;;;55.80;38.50;;;6.80;99.90;;;;;;5038931;28;20052;-63
2022/11/14 09:45:41;;;;;;;62.72;45.13;;;7.30;99.90;;;;;;4962243;28;20446;-63
2022/11/14 09:48:15;;;;;;;62.25;45.53;;;7.20;99.90;;;;;;5060178;28;20049;-64
2022/11/14 09:50:47;;;;;;;49.05;32.88;;;7.30;99.90;;;;;;5039905;28;20131;-64
2022/11/14 09:53:28;;;;;;;62.80;47.65;;;7.20;99.90;;;;;;5042315;28;20113;-66
2022/11/14 09:55:53;;;;;;;60.33;42.33;;;7.30;99.90;;;;;;5059265;28;20048;-65
2022/11/14 09:58:20;;;;;;;63.42;46.15;;;7.20;99.90;;;;;;5042260;28;20036;-64
2022/11/14 10:00:54;;;;;;;58.70;41.95;;;7.40;99.90;;;;;;5023676;28;20114;-64
2022/11/14 10:03:32;;;;;;;53.05;36.97;;;7.20;99.90;;;;;;5022713;28;20052;-63
2022/11/14 10:06:43;;;;;;;50.28;30.65;;;7.10;99.90;;;;;;5038065;28;20367;-63
2022/11/14 10:09:25;;;;;;;65.57;48.38;;;7.40;99.90;;;;;;5058134;28;20475;-63
2022/11/14 10:12:07;;;;;;;71.10;51.20;;;7.30;99.90;;;;;;5057164;28;20055;-63
2022/11/14 10:14:54;;;;;;;68.65;49.38;;;7.30;99.90;;;;;;5041661;28;20341;-64
2022/11/14 10:17:54;;;;;;;58.03;42.33;;;7.20;99.90;;;;;;5039863;28;20047;-64
2022/11/14 10:20:25;;;;;;;62.70;46.88;;;7.60;99.90;;;;;;5036606;28;20709;-65
2022/11/14 10:22:57;;;;;;;60.75;43.85;;;7.20;99.90;;;;;;5030270;28;20052;-65
2022/11/14 10:25:22;;;;;;;62.63;43.78;;;7.20;99.90;;;;;;5016710;28;20544;-66
2022/11/14 10:28:20;;;;;;;59.33;41.85;;;7.60;99.90;;;;;;5054056;28;20040;-66
2022/11/14 10:31:04;;;;;;;70.03;51.33;;;7.20;99.90;;;;;;5053516;28;20599;-64
2022/11/14 10:33:56;;;;;;;58.03;40.05;;;7.30;99.90;;;;;;5018078;28;20281;-65
2022/11/14 10:36:27;;;;;;;69.63;50.20;;;7.50;99.90;;;;;;5032491;28;20102;-65
2022/11/14 10:39:12;;;;;;;65.55;47.17;;;7.60;99.90;;;;;;5015652;28;20552;-63
2022/11/14 10:41:39;;;;;;;57.35;43.05;;;8.00;99.90;;;;;;5053041;28;20037;-65
2022/11/14 10:44:12;;;;;;;48.58;33.15;;;7.60;99.90;;;;;;5020801;28;20064;-65
2022/11/14 10:46:52;;;;;;;58.50;45.20;;;8.10;99.90;;;;;;5039380;28;20147;-63
2022/11/14 10:49:21;;;;;;;50.42;36.47;;;7.90;99.90;;;;;;5023937;28;20128;-65
2022/11/14 10:51:56;;;;;;;47.53;35.03;;;8.20;99.90;;;;;;5036889;28;20041;-64
2022/11/14 10:54:34;;;;;;;48.25;35.35;;;8.30;99.90;;;;;;5034713;28;20501;-63
2022/11/14 10:56:59;;;;;;;54.50;39.08;;;8.60;99.90;;;;;;5034879;28;20146;-63
2022/11/14 10:59:26;;;;;;;52.70;39.92;;;8.60;99.90;;;;;;5036502;28;20041;-64
2022/11/14 11:01:57;;;;;;;54.80;42.33;;;9.10;99.90;;;;;;5019271;28;20049;-64
2022/11/14 11:04:35;;;;;;;51.92;40.55;;;8.90;99.90;;;;;;5018068;28;20510;-64
2022/11/14 11:07:07;;;;;;;45.88;34.30;;;9.20;99.90;;;;;;5035360;28;20055;-65
2022/11/14 11:12:37;;;;;;;50.92;40.42;;;9.50;99.90;;;;;;5032967;28;20114;-65
2022/11/14 11:15:30;;;;;;;42.08;27.60;;;9.30;99.90;;;;;;5034876;28;20168;-67
2022/11/14 11:17:57;;;;;;;49.85;38.00;;;9.20;99.90;;;;;;5018192;28;20037;-64
2022/11/14 11:20:27;;;;;;;43.17;29.10;;;9.00;99.90;;;;;;5016851;28;20560;-65
2022/11/14 11:23:02;;;;;;;40.38;31.63;;;9.10;99.90;;;;;;5036189;28;20402;-65
2022/11/14 11:25:29;;;;;;;43.17;31.55;;;9.20;99.90;;;;;;5034592;28;20057;-65
2022/11/14 11:28:10;;;;;;;49.85;38.38;;;9.10;99.90;;;;;;5034157;28;20727;-64
2022/11/14 11:30:36;;;;;;;41.35;28.10;;;9.40;99.90;;;;;;5020215;28;20055;-65
2022/11/14 11:33:20;;;;;;;45.83;34.35;;;9.90;99.90;;;;;;5036583;28;20402;-65
2022/11/14 11:35:48;;;;;;;44.53;36.33;;;10.30;99.90;;;;;;5035420;28;20106;-65
2022/11/14 11:38:16;;;;;;;43.08;32.95;;;10.10;99.90;;;;;;5035776;28;20392;-65
2022/11/14 11:40:49;;;;;;;43.60;34.83;;;10.30;99.90;;;;;;5036367;28;20033;-64
2022/11/14 11:43:46;;;;;;;35.05;25.92;;;10.20;99.90;;;;;;5033058;28;20056;-64
2022/11/14 11:46:21;;;;;;;43.83;35.00;;;10.30;99.90;;;;;;5036392;28;20458;-65
2022/11/14 11:48:52;;;;;;;41.80;33.72;;;10.30;99.90;;;;;;5007453;28;20518;-65
2022/11/14 11:51:23;;;;;;;44.50;34.20;;;10.20;99.90;;;;;;5018551;28;20045;-65
2022/11/14 11:54:22;;;;;;;40.63;31.73;;;10.30;99.90;;;;;;5035816;28;20045;-64
2022/11/14 11:56:53;;;;;;;38.15;29.38;;;10.30;99.90;;;;;;5034956;28;20076;-65
2022/11/14 11:59:44;;;;;;;27.95;20.67;;;10.30;99.90;;;;;;5034847;28;20037;-64
2022/11/14 12:02:28;;;;;;;39.83;31.90;;;10.50;99.90;;;;;;5036015;28;20037;-63
2022/11/14 12:04:56;;;;;;;43.22;32.95;;;10.80;99.90;;;;;;5036187;28;20040;-65
2022/11/14 12:07:37;;;;;;;36.20;28.35;;;10.80;99.90;;;;;;5037251;28;20099;-64
2022/11/14 12:10:13;;;;;;;36.00;26.80;;;11.10;99.90;;;;;;5037507;28;20036;-64
2022/11/14 12:12:44;;;;;;;39.15;28.63;;;11.40;99.90;;;;;;5006973;28;20044;-63
2022/11/14 12:15:46;;;;;;;37.97;31.90;;;11.30;99.90;;;;;;5033910;28;20392;-65
2022/11/14 12:18:17;;;;;;;38.25;29.85;;;11.30;99.90;;;;;;5035430;28;20053;-65
2022/11/14 12:20:45;;;;;;;28.48;22.50;;;11.60;99.90;;;;;;5022849;28;20490;-64
2022/11/14 12:24:05;;;;;;;32.28;25.17;;;11.90;99.90;;;;;;5037377;28;20049;-64
2022/11/14 12:27:05;;;;;;;35.28;26.73;;;11.70;99.90;;;;;;4958278;28;20054;-65
2022/11/14 12:29:43;;;;;;;34.50;25.30;;;11.90;99.90;;;;;;5031247;28;20281;-64
2022/11/14 12:32:16;;;;;;;31.83;24.58;;;12.00;99.90;;;;;;5018425;28;20139;-64
2022/11/14 12:34:45;;;;;;;40.30;32.85;;;11.60;99.90;;;;;;5035045;28;20160;-66
2022/11/14 12:37:22;;;;;;;37.55;31.35;;;11.10;99.90;;;;;;5034008;28;20037;-64
2022/11/14 12:39:59;;;;;;;38.58;29.98;;;10.80;99.90;;;;;;5035350;28;20509;-65
2022/11/14 12:42:25;;;;;;;33.25;25.23;;;10.80;99.90;;;;;;5035553;28;20195;-66
2022/11/14 12:44:51;;;;;;;38.47;31.50;;;10.60;99.90;;;;;;5031635;28;20777;-64
2022/11/14 12:47:22;;;;;;;29.48;21.55;;;10.90;99.90;;;;;;5034313;28;20041;-65